• Join FlightAware (Why Join?)
  • Login
  • US Flag GB Flag 
09:16 EDT


 

Airport Tracker/Info


-or-


 

Live Flight TrackerFlight Track Log ✈ EJA929 ✈ 11-Apr-2013 ✈ KLAS - KASE

Flight Track Log - Related Links

Times and Time Zones

All times are in EDT time to prevent confusion due to time zone crossing. See the EJA929 flight status page for this flight to view local times or setup timezone preferences in your user account.

Time Position Orientation Groundspeed Altitude Reporting Facility
EDT Latitude Longitude Course Direction KTS MPH feet Rate Location/Type
11:35 36.0742 -115.1689 273° West 183 211 3,700  Level Los Angeles Center
11:36 36.0761 -115.2219 273° West 211 243 6,700 4,320 Climbing Los Angeles Center
11:37 36.1228 -115.2947 308° West 253 291 12,200 4,080 Climbing Los Angeles Center
11:38 36.1825 -115.2439 34° Northeast 272 313 15,200 2,340 Climbing Los Angeles Center
11:40 36.1989 -115.1333 80° East 317 365 17,100 1,620 Climbing Los Angeles Center
11:41 36.1989 -115.0017 90° East 368 423 18,600 1,680 Climbing Los Angeles Center
11:42 36.2003 -114.8564 89° East 409 471 20,600 2,400 Climbing Los Angeles Center
11:43 36.2000 -114.6786 90° East 428 493 23,600 2,640 Climbing Los Angeles Center
11:44 36.2044 -114.5264 88° East 443 510 26,100 1,980 Climbing Los Angeles Center
11:45 36.2689 -114.3919 59° Northeast 455 524 27,700 1,500 Climbing Los Angeles Center
11:46 36.3439 -114.2542 56° Northeast 476 548 29,200 1,440 Climbing Los Angeles Center
11:47 36.4217 -114.1069 57° Northeast 502 578 30,700 1,500 Climbing Los Angeles Center
11:48 36.5158 -113.9331 56° Northeast 525 604 32,400 1,500 Climbing Los Angeles Center
11:49 36.6000 -113.7756 56° Northeast 541 623 33,900 1,200 Climbing Los Angeles Center
11:50 36.6842 -113.6150 57° Northeast 551 634 35,000 540 Climbing Los Angeles Center
11:51 36.7667 -113.4583 57° Northeast 546 628 35,100  Climbing Los Angeles Center
11:52 36.8494 -113.3019 56° Northeast 544 626 35,100  Level Los Angeles Center
11:53 36.9478 -113.1128 57° Northeast 544 626 35,100  Level Los Angeles Center
11:54 37.0297 -112.9575 57° Northeast 541 623 35,100  Level Los Angeles Center
11:55 37.1106 -112.8003 57° Northeast 542 624 35,100  Level Los Angeles Center
11:56 37.1925 -112.6417 57° Northeast 546 628 35,100  Level Los Angeles Center
11:57 37.2739 -112.4828 57° Northeast 548 631 35,100  Level Los Angeles Center
11:58 37.3719 -112.2919 57° Northeast 548 631 35,100  Level Los Angeles Center
11:59 37.4522 -112.1339 57° Northeast 544 626 35,100  Level Salt Lake Center
12:00 37.5331 -111.9728 58° Northeast 547 629 35,100  Level Salt Lake Center
12:01 37.6144 -111.8119 57° Northeast 547 629 35,100  Level Salt Lake Center
12:02 37.7106 -111.6178 58° Northeast 547 629 35,100  Level Salt Lake Center
12:03 37.7925 -111.4581 57° Northeast 544 626 35,100 -60 Level Salt Lake Center
12:04 37.8708 -111.2956 59° Northeast 545 627 35,000  Descending Denver Center
12:05 37.9672 -111.1006 58° Northeast 545 627 35,100  Climbing Denver Center
12:07 38.0464 -110.9364 58° Northeast 547 629 35,100  Level Denver Center
12:07 38.1186 -110.7922 57° Northeast 543 625 35,100 -420 Level Salt Lake Center
12:08 38.1942 -110.6375 58° Northeast 540 621 34,400 -960 Descending Salt Lake Center
12:10 38.2936 -110.4261 59° Northeast 543 625 33,100 -660 Descending Denver Center
12:11 38.3675 -110.2714 59° Northeast 537 618 33,000  Descending Denver Center
12:12 38.4414 -110.1208 58° Northeast 527 606 33,100  Climbing Salt Lake Center
12:13 38.5044 -109.9611 63° Northeast 529 609 33,100  Level Salt Lake Center
12:14 38.5528 -109.7575 73° East 537 618 33,100  Level Salt Lake Center
12:15 38.5936 -109.5822 73° East 538 619 33,100  Level Salt Lake Center
12:16 38.6411 -109.3778 73° East 538 619 33,100 -60 Level Salt Lake Center
12:17 38.6800 -109.2058 74° East 530 610 33,000  Descending Salt Lake Center
12:18 38.7197 -109.0333 74° East 529 609 33,100  Climbing Salt Lake Center
12:19 38.7653 -108.8347 74° East 525 604 33,100  Level Salt Lake Center
12:20 38.8175 -108.6006 74° East 525 604 33,100  Level Denver Center
12:21 38.8561 -108.4292 74° East 525 604 33,100 -60 Level Denver Center
12:22 38.9014 -108.2294 74° East 524 603 33,000  Descending Denver Center
12:23 38.9381 -108.0578 75° East 524 603 33,100 -660 Climbing Denver Center
12:24 38.9769 -107.8844 74° East 527 606 31,700 -1,800 Descending Denver Center
12:25 39.0186 -107.6933 74° East 503 579 29,500 -2,040 Descending Denver Center
12:26 39.0506 -107.5472 74° East 459 528 27,500 -2,040 Descending Denver Center
12:27 39.0844 -107.3864 75° East 424 488 25,300 -2,040 Descending Denver Center
12:28 39.1297 -107.2711 63° Northeast 388 447 23,400 -2,040 Descending Denver Center
12:29 39.2092 -107.1747 43° Northeast 352 405 21,200 -1,200 Descending Denver Center
12:30 39.2731 -107.0969 43° Northeast 334 384 21,000 -120 Descending Denver Center
12:31 39.3414 -107.0158 43° Northeast 305 351 21,000  Level Denver Center
12:32 39.3944 -106.9489 44° Northeast 286 329 21,000  Level Denver Center
12:33 39.4539 -106.8767 43° Northeast 266 306 21,000  Level Denver Center
12:34 39.5172 -106.8378 25° Northeast 263 303 21,000  Level Denver Center
12:35 39.5908 -106.7986 22° Northeast 267 307 21,000  Level Denver Center
12:37 39.5706 -106.8831 253° West 285 328 21,000  Level Denver Center
12:38 39.4858 -106.8983 188° South 320 368 21,000  Level Denver Center
12:39 39.4031 -106.8886 175° South 322 371 21,000  Level Denver Center
12:40 39.3906 -106.7822 99° East 297 342 21,000  Level Denver Center
12:41 39.4506 -106.7625 14° North 238 274 21,000  Level Denver Center
12:42 39.5228 -106.7692 356° North 233 268 21,000  Level Denver Center
12:43 39.5850 -106.7742 356° North 233 268 21,000  Level Denver Center
12:44 39.6528 -106.8250 330° Northwest 239 275 21,000 -240 Level Denver Center
12:45 39.6169 -106.9119 242° Southwest 264 304 20,600 -1,080 Descending Denver Center
12:46 39.6056 -106.9989 260° West 272 313 18,800 -2,100 Descending Denver Center
12:47 39.5661 -107.0847 239° Southwest 303 349 16,300 -1,740 Descending Denver Center
12:48 39.5081 -107.0289 143° Southeast 279 321 15,300 -1,020 Descending Denver Center
12:49 39.4556 -106.9803 144° Southeast 260 299 14,200 -660 Descending Denver Center
12:50 39.3914 -106.9486 159° South 245 282 14,000 -840 Descending Denver Center
12:51 39.3256 -106.9183 160° South 217 250 12,500 -960 Descending Denver Center
12:52 39.2764 -106.8947 160° South 199 229 12,100 720 Descending Denver Center
12:53 39.2361 -106.9147 201° Southwest 216 249 14,000 1,500 Climbing Denver Center
12:55 39.2728 -106.9839 304° West 232 267 15,300 1,440 Climbing Denver Center
12:56 39.3186 -107.0664 306° West 271 312 17,000 1,740 Climbing Denver Center
12:57 39.3819 -107.1075 333° Northwest 247 284 18,900 1,440 Climbing Denver Center
12:58 39.4531 -107.1344 344° North 243 280 20,000 960 Climbing Denver Center
12:59 39.5222 -107.1572 346° North 232 267 21,000 480 Climbing Denver Center
13:00 39.5578 -107.0744 61° Northeast 287 330 21,000  Level Denver Center
13:01 39.5769 -106.9556 78° East 302 348 21,000  Level Denver Center
13:02 39.5450 -106.8656 115° Southeast 317 365 21,000  Level Denver Center
13:03 39.4544 -106.8183 158° South 315 362 21,000  Level Denver Center
13:04 39.3781 -106.7797 159° South 309 356 21,000  Level Denver Center
13:05 39.3000 -106.7589 168° South 316 364 21,000 -300 Level Denver Center
13:06 39.2597 -106.8414 238° Southwest 255 293 20,500 -1,260 Descending Denver Center
13:07 39.2781 -106.9275 285° West 269 310 18,400 -1,980 Descending Denver Center
13:08 39.3314 -107.0008 313° West 275 316 16,500 -1,200 Descending Denver Center
13:09 39.3867 -107.0761 314° West 280 322 16,000 -1,020 Descending Denver Center
13:10 39.4364 -107.1472 312° West 284 327 14,400 -1,620 Descending Denver Center
13:11 39.4900 -107.2239 312° West 254 292 12,700 -960 Descending Denver Center
13:12 39.5336 -107.2850 313° West 218 251 12,500 -780 Descending Denver Center
13:13 39.5336 -107.3556 270° West 212 244 11,200 -780 Descending Denver Center
13:14 39.5319 -107.4214 268° West 165 190 10,900 -540 Descending Denver Center
13:15 39.5306 -107.4706 268° West 145 167 10,100 -900 Descending Denver Center
13:16 39.5306 -107.5247 270° West 146 168 9,100 -960 Descending Denver Center
13:17 39.5292 -107.5789 268° West 148 170 8,200 -960 Descending Denver Center
13:19 39.5281 -107.6414 269° West 147 169 7,000 -1,020 Descending Denver Center
13:20 39.4835 -107.5277 117° Southeast  Level Estimated
13:27 39.2219 -106.8682 117° Southeast  Level Estimated